sensor_id;sensor_type;location;lat;lon;timestamp;pressure;altitude;pressure_sealevel;temperature;humidity
70546;BME280;58098;51.680;5.134;2024-03-08T00:02:00;101802.41;;;3.08;100.00
70546;BME280;58098;51.680;5.134;2024-03-08T00:04:25;101788.91;;;3.00;100.00
70546;BME280;58098;51.680;5.134;2024-03-08T00:06:50;101800.84;;;3.03;100.00
70546;BME280;58098;51.680;5.134;2024-03-08T00:09:16;101791.56;;;2.97;100.00
70546;BME280;58098;51.680;5.134;2024-03-08T00:11:41;101796.69;;;2.99;100.00
70546;BME280;58098;51.680;5.134;2024-03-08T00:14:06;101776.41;;;2.88;100.00
70546;BME280;58098;51.680;5.134;2024-03-08T00:16:33;101771.31;;;2.87;100.00
70546;BME280;58098;51.680;5.134;2024-03-08T00:18:59;101773.84;;;2.88;100.00
70546;BME280;58098;51.680;5.134;2024-03-08T00:21:24;101763.69;;;2.84;100.00
70546;BME280;58098;51.680;5.134;2024-03-08T00:23:49;101770.56;;;2.83;100.00
70546;BME280;58098;51.680;5.134;2024-03-08T00:26:15;101766.56;;;2.75;100.00
70546;BME280;58098;51.680;5.134;2024-03-08T00:28:40;101779.28;;;2.79;100.00
70546;BME280;58098;51.680;5.134;2024-03-08T00:31:05;101766.66;;;2.72;100.00
70546;BME280;58098;51.680;5.134;2024-03-08T00:33:32;101778.44;;;2.79;100.00
70546;BME280;58098;51.680;5.134;2024-03-08T00:35:57;101773.38;;;2.76;100.00
70546;BME280;58098;51.680;5.134;2024-03-08T00:38:22;101757.38;;;2.66;100.00
70546;BME280;58098;51.680;5.134;2024-03-08T00:40:48;101756.44;;;2.68;100.00
70546;BME280;58098;51.680;5.134;2024-03-08T00:43:13;101764.94;;;2.71;100.00
70546;BME280;58098;51.680;5.134;2024-03-08T00:45:38;101763.31;;;2.68;100.00
70546;BME280;58098;51.680;5.134;2024-03-08T00:48:04;101755.09;;;2.57;100.00
70546;BME280;58098;51.680;5.134;2024-03-08T00:50:30;101751.06;;;2.48;100.00
70546;BME280;58098;51.680;5.134;2024-03-08T00:52:56;101754.47;;;2.49;100.00
70546;BME280;58098;51.680;5.134;2024-03-08T00:55:21;101761.25;;;2.53;100.00
70546;BME280;58098;51.680;5.134;2024-03-08T00:57:46;101764.50;;;2.58;100.00
70546;BME280;58098;51.680;5.134;2024-03-08T01:00:12;101741.88;;;2.40;100.00
70546;BME280;58098;51.680;5.134;2024-03-08T01:02:38;101759.63;;;2.49;100.00
70546;BME280;58098;51.680;5.134;2024-03-08T01:05:05;101751.31;;;2.41;100.00
70546;BME280;58098;51.680;5.134;2024-03-08T01:07:34;101746.25;;;2.38;100.00
70546;BME280;58098;51.680;5.134;2024-03-08T01:10:01;101743.69;;;2.38;100.00
70546;BME280;58098;51.680;5.134;2024-03-08T01:12:27;101742.91;;;2.34;100.00
70546;BME280;58098;51.680;5.134;2024-03-08T01:14:52;101742.91;;;2.34;100.00
70546;BME280;58098;51.680;5.134;2024-03-08T01:17:17;101735.25;;;2.33;100.00
70546;BME280;58098;51.680;5.134;2024-03-08T01:19:42;101716.59;;;2.26;100.00
70546;BME280;58098;51.680;5.134;2024-03-08T01:22:10;101727.53;;;2.33;100.00
70546;BME280;58098;51.680;5.134;2024-03-08T01:24:35;101716.59;;;2.25;100.00
70546;BME280;58098;51.680;5.134;2024-03-08T01:27:02;101717.59;;;2.21;100.00
70546;BME280;58098;51.680;5.134;2024-03-08T01:29:27;101713.38;;;2.18;100.00
70546;BME280;58098;51.680;5.134;2024-03-08T01:31:54;101715.03;;;2.21;100.00
70546;BME280;58098;51.680;5.134;2024-03-08T01:34:20;101713.53;;;2.14;100.00
70546;BME280;58098;51.680;5.134;2024-03-08T01:36:46;101696.69;;;2.02;100.00
70546;BME280;58098;51.680;5.134;2024-03-08T01:39:11;101698.47;;;2.02;100.00
70546;BME280;58098;51.680;5.134;2024-03-08T01:41:36;101706.03;;;2.06;100.00
70546;BME280;58098;51.680;5.134;2024-03-08T01:44:02;101712.06;;;2.05;100.00
70546;BME280;58098;51.680;5.134;2024-03-08T01:46:28;101697.84;;;1.93;100.00
70546;BME280;58098;51.680;5.134;2024-03-08T01:48:54;101696.13;;;1.92;100.00
70546;BME280;58098;51.680;5.134;2024-03-08T01:51:20;101704.63;;;1.96;100.00
70546;BME280;58098;51.680;5.134;2024-03-08T01:53:47;101709.75;;;1.96;100.00
70546;BME280;58098;51.680;5.134;2024-03-08T01:56:13;101682.56;;;1.87;100.00
70546;BME280;58098;51.680;5.134;2024-03-08T01:58:40;101697.97;;;1.89;100.00
70546;BME280;58098;51.680;5.134;2024-03-08T02:01:07;101698.06;;;1.86;100.00
70546;BME280;58098;51.680;5.134;2024-03-08T02:03:34;101686.41;;;1.74;100.00
70546;BME280;58098;51.680;5.134;2024-03-08T02:05:59;101679.56;;;1.73;100.00
70546;BME280;58098;51.680;5.134;2024-03-08T02:08:25;101664.13;;;1.73;100.00
70546;BME280;58098;51.680;5.134;2024-03-08T02:10:50;101668.47;;;1.71;100.00
70546;BME280;58098;51.680;5.134;2024-03-08T02:13:16;101688.06;;;1.75;100.00
70546;BME280;58098;51.680;5.134;2024-03-08T02:16:00;101685.50;;;1.75;100.00
70546;BME280;58098;51.680;5.134;2024-03-08T02:18:26;101683.06;;;1.71;100.00
70546;BME280;58098;51.680;5.134;2024-03-08T02:20:56;101669.53;;;1.64;100.00
70546;BME280;58098;51.680;5.134;2024-03-08T02:23:22;101663.69;;;1.59;100.00
70546;BME280;58098;51.680;5.134;2024-03-08T02:25:48;101664.66;;;1.55;100.00
70546;BME280;58098;51.680;5.134;2024-03-08T02:28:14;101649.41;;;1.49;100.00
70546;BME280;58098;51.680;5.134;2024-03-08T02:30:40;101646.13;;;1.44;100.00
70546;BME280;58098;51.680;5.134;2024-03-08T02:33:06;101646.03;;;1.47;100.00
70546;BME280;58098;51.680;5.134;2024-03-08T02:35:33;101649.47;;;1.46;100.00
70546;BME280;58098;51.680;5.134;2024-03-08T02:37:59;101641.09;;;1.41;100.00
70546;BME280;58098;51.680;5.134;2024-03-08T02:40:24;101637.63;;;1.42;100.00
70546;BME280;58098;51.680;5.134;2024-03-08T02:42:50;101634.25;;;1.40;100.00
70546;BME280;58098;51.680;5.134;2024-03-08T02:45:15;101642.69;;;1.45;100.00
70546;BME280;58098;51.680;5.134;2024-03-08T02:47:40;101633.25;;;1.44;100.00
70546;BME280;58098;51.680;5.134;2024-03-08T02:50:06;101628.34;;;1.37;100.00
70546;BME280;58098;51.680;5.134;2024-03-08T02:52:33;101629.25;;;1.34;100.00
70546;BME280;58098;51.680;5.134;2024-03-08T02:54:59;101632.56;;;1.39;100.00
70546;BME280;58098;51.680;5.134;2024-03-08T02:57:24;101623.19;;;1.37;100.00
70546;BME280;58098;51.680;5.134;2024-03-08T02:59:49;101607.31;;;1.24;100.00
70546;BME280;58098;51.680;5.134;2024-03-08T03:02:15;101614.91;;;1.27;100.00
70546;BME280;58098;51.680;5.134;2024-03-08T03:04:41;101603.81;;;1.25;100.00
70546;BME280;58098;51.680;5.134;2024-03-08T03:07:07;101614.78;;;1.31;100.00
70546;BME280;58098;51.680;5.134;2024-03-08T03:09:32;101615.84;;;1.24;100.00
70546;BME280;58098;51.680;5.134;2024-03-08T03:11:58;101614.03;;;1.28;100.00
70546;BME280;58098;51.680;5.134;2024-03-08T03:14:24;101602.25;;;1.21;100.00
70546;BME280;58098;51.680;5.134;2024-03-08T03:16:49;101611.53;;;1.25;100.00
70546;BME280;58098;51.680;5.134;2024-03-08T03:19:15;101585.31;;;1.14;100.00
70546;BME280;58098;51.680;5.134;2024-03-08T03:21:40;101597.94;;;1.21;100.00
70546;BME280;58098;51.680;5.134;2024-03-08T03:24:08;101600.47;;;1.23;100.00
70546;BME280;58098;51.680;5.134;2024-03-08T03:26:36;101600.53;;;1.21;100.00
70546;BME280;58098;51.680;5.134;2024-03-08T03:29:07;101596.31;;;1.19;100.00
70546;BME280;58098;51.680;5.134;2024-03-08T03:31:34;101592.97;;;1.15;100.00
70546;BME280;58098;51.680;5.134;2024-03-08T03:33:59;101573.59;;;1.04;100.00
70546;BME280;58098;51.680;5.134;2024-03-08T03:36:28;101582.03;;;1.09;100.00
70546;BME280;58098;51.680;5.134;2024-03-08T03:38:53;101596.44;;;1.14;100.00
70546;BME280;58098;51.680;5.134;2024-03-08T03:41:30;101601.59;;;1.13;100.00
70546;BME280;58098;51.680;5.134;2024-03-08T03:43:55;101595.69;;;1.11;100.00
70546;BME280;58098;51.680;5.134;2024-03-08T03:46:21;101582.19;;;1.03;100.00
70546;BME280;58098;51.680;5.134;2024-03-08T03:48:46;101583.69;;;1.10;100.00
70546;BME280;58098;51.680;5.134;2024-03-08T03:51:11;101568.47;;;1.04;100.00
70546;BME280;58098;51.680;5.134;2024-03-08T03:53:37;101585.41;;;1.11;100.00
70546;BME280;58098;51.680;5.134;2024-03-08T03:56:03;101579.47;;;1.09;100.00
70546;BME280;58098;51.680;5.134;2024-03-08T03:58:35;101582.06;;;1.07;100.00
70546;BME280;58098;51.680;5.134;2024-03-08T04:01:01;101574.47;;;1.03;100.00
70546;BME280;58098;51.680;5.134;2024-03-08T04:03:26;101576.13;;;1.05;100.00
70546;BME280;58098;51.680;5.134;2024-03-08T04:05:51;101561.06;;;0.93;100.00
70546;BME280;58098;51.680;5.134;2024-03-08T04:08:17;101577.97;;;1.00;100.00
70546;BME280;58098;51.680;5.134;2024-03-08T04:10:42;101571.16;;;0.99;100.00
70546;BME280;58098;51.680;5.134;2024-03-08T04:13:07;101570.31;;;0.99;100.00
70546;BME280;58098;51.680;5.134;2024-03-08T04:15:34;101555.06;;;0.93;100.00
70546;BME280;58098;51.680;5.134;2024-03-08T04:18:00;101570.31;;;0.99;100.00
70546;BME280;58098;51.680;5.134;2024-03-08T04:20:25;101562.63;;;0.99;100.00
70546;BME280;58098;51.680;5.134;2024-03-08T04:22:51;101556.59;;;1.00;100.00
70546;BME280;58098;51.680;5.134;2024-03-08T04:25:16;101550.84;;;0.92;100.00
70546;BME280;58098;51.680;5.134;2024-03-08T04:27:41;101563.50;;;0.98;100.00
70546;BME280;58098;51.680;5.134;2024-03-08T04:30:08;101558.47;;;0.95;100.00
70546;BME280;58098;51.680;5.134;2024-03-08T04:32:33;101542.56;;;0.81;100.00
70546;BME280;58098;51.680;5.134;2024-03-08T04:34:59;101543.34;;;0.84;100.00
70546;BME280;58098;51.680;5.134;2024-03-08T04:37:27;101507.16;;;0.61;100.00
70546;BME280;58098;51.680;5.134;2024-03-08T04:39:54;101550.25;;;0.81;100.00
70546;BME280;58098;51.680;5.134;2024-03-08T04:42:20;101532.59;;;0.70;100.00
70546;BME280;58098;51.680;5.134;2024-03-08T04:44:45;101535.03;;;0.75;100.00
70546;BME280;58098;51.680;5.134;2024-03-08T04:47:11;101551.97;;;0.82;100.00
70546;BME280;58098;51.680;5.134;2024-03-08T04:49:36;101540.03;;;0.79;100.00
70546;BME280;58098;51.680;5.134;2024-03-08T04:52:02;101531.69;;;0.73;100.00
70546;BME280;58098;51.680;5.134;2024-03-08T04:54:28;101519.06;;;0.63;100.00
70546;BME280;58098;51.680;5.134;2024-03-08T04:56:54;101529.25;;;0.66;100.00
70546;BME280;58098;51.680;5.134;2024-03-08T04:59:19;101525.19;;;0.59;100.00
70546;BME280;58098;51.680;5.134;2024-03-08T05:01:44;101531.03;;;0.64;100.00
70546;BME280;58098;51.680;5.134;2024-03-08T05:04:10;101531.97;;;0.62;100.00
70546;BME280;58098;51.680;5.134;2024-03-08T05:06:35;101530.16;;;0.65;100.00
70546;BME280;58098;51.680;5.134;2024-03-08T05:09:02;101501.53;;;0.48;100.00
70546;BME280;58098;51.680;5.134;2024-03-08T05:11:42;101514.16;;;0.56;100.00
70546;BME280;58098;51.680;5.134;2024-03-08T05:14:09;101518.34;;;0.58;100.00
70546;BME280;58098;51.680;5.134;2024-03-08T05:16:34;101511.69;;;0.51;100.00
70546;BME280;58098;51.680;5.134;2024-03-08T05:18:59;101531.16;;;0.60;100.00
70546;BME280;58098;51.680;5.134;2024-03-08T05:21:25;101520.91;;;0.58;100.00
70546;BME280;58098;51.680;5.134;2024-03-08T05:23:50;101511.69;;;0.51;100.00
70546;BME280;58098;51.680;5.134;2024-03-08T05:26:16;101514.31;;;0.50;100.00
70546;BME280;58098;51.680;5.134;2024-03-08T05:28:41;101526.94;;;0.57;100.00
70546;BME280;58098;51.680;5.134;2024-03-08T05:31:07;101526.94;;;0.57;100.00
70546;BME280;58098;51.680;5.134;2024-03-08T05:33:33;101516.81;;;0.53;100.00
70546;BME280;58098;51.680;5.134;2024-03-08T05:36:00;101500.84;;;0.42;100.00
70546;BME280;58098;51.680;5.134;2024-03-08T05:38:27;101503.38;;;0.43;100.00
70546;BME280;58098;51.680;5.134;2024-03-08T05:40:53;101509.19;;;0.50;100.00
70546;BME280;58098;51.680;5.134;2024-03-08T05:43:19;101514.38;;;0.48;100.00
70546;BME280;58098;51.680;5.134;2024-03-08T05:45:45;101512.75;;;0.44;100.00
70546;BME280;58098;51.680;5.134;2024-03-08T05:48:11;101495.84;;;0.37;100.00
70546;BME280;58098;51.680;5.134;2024-03-08T05:50:38;101511.88;;;0.45;100.00
70546;BME280;58098;51.680;5.134;2024-03-08T05:53:04;101491.50;;;0.39;100.00
70546;BME280;58098;51.680;5.134;2024-03-08T05:55:32;101493.19;;;0.40;100.00
70546;BME280;58098;51.680;5.134;2024-03-08T05:58:00;101488.22;;;0.34;100.00
70546;BME280;58098;51.680;5.134;2024-03-08T06:00:26;101482.16;;;0.37;100.00
70546;BME280;58098;51.680;5.134;2024-03-08T06:02:51;101486.63;;;0.30;100.00
70546;BME280;58098;51.680;5.134;2024-03-08T06:05:17;101488.22;;;0.34;100.00
70546;BME280;58098;51.680;5.134;2024-03-08T06:07:42;101500.94;;;0.39;100.00
70546;BME280;58098;51.680;5.134;2024-03-08T06:10:11;101484.06;;;0.30;100.00
70546;BME280;58098;51.680;5.134;2024-03-08T06:12:42;101479.78;;;0.29;100.00
70546;BME280;58098;51.680;5.134;2024-03-08T06:15:08;101488.84;;;0.42;100.00
70546;BME280;58098;51.680;5.134;2024-03-08T06:17:35;101482.84;;;0.43;100.00
70546;BME280;58098;51.680;5.134;2024-03-08T06:20:01;101474.50;;;0.35;100.00
70546;BME280;58098;51.680;5.134;2024-03-08T06:22:26;101463.38;;;0.36;100.00
70546;BME280;58098;51.680;5.134;2024-03-08T06:24:52;101470.03;;;0.42;100.00
70546;BME280;58098;51.680;5.134;2024-03-08T06:27:19;101464.16;;;0.38;100.00
70546;BME280;58098;51.680;5.134;2024-03-08T06:29:44;101462.41;;;0.40;100.00
70546;BME280;58098;51.680;5.134;2024-03-08T06:32:09;101466.53;;;0.46;100.00
70546;BME280;58098;51.680;5.134;2024-03-08T06:34:35;101458.06;;;0.42;100.00
70546;BME280;58098;51.680;5.134;2024-03-08T06:37:00;101459.56;;;0.49;100.00
70546;BME280;58098;51.680;5.134;2024-03-08T06:39:27;101455.34;;;0.48;100.00
70546;BME280;58098;51.680;5.134;2024-03-08T06:41:53;101449.34;;;0.48;100.00
70546;BME280;58098;51.680;5.134;2024-03-08T06:44:19;101453.44;;;0.55;100.00
70546;BME280;58098;51.680;5.134;2024-03-08T06:46:47;101471.00;;;0.68;100.00
70546;BME280;58098;51.680;5.134;2024-03-08T06:49:13;101455.72;;;0.65;100.00
70546;BME280;58098;51.680;5.134;2024-03-08T06:51:38;101459.94;;;0.66;100.00
70546;BME280;58098;51.680;5.134;2024-03-08T06:54:06;101462.44;;;0.70;100.00
70546;BME280;58098;51.680;5.134;2024-03-08T06:56:34;101464.06;;;0.72;100.00
70546;BME280;58098;51.680;5.134;2024-03-08T06:58:59;101462.13;;;0.80;100.00
70546;BME280;58098;51.680;5.134;2024-03-08T07:01:25;101468.06;;;0.82;100.00
70546;BME280;58098;51.680;5.134;2024-03-08T07:03:50;101470.53;;;0.85;100.00
70546;BME280;58098;51.680;5.134;2024-03-08T07:06:18;101470.34;;;0.91;100.00
70546;BME280;58098;51.680;5.134;2024-03-08T07:08:44;101463.50;;;0.92;100.00
70546;BME280;58098;51.680;5.134;2024-03-08T07:11:11;101454.94;;;0.91;100.00
70546;BME280;58098;51.680;5.134;2024-03-08T07:13:37;101453.03;;;0.98;100.00
70546;BME280;58098;51.680;5.134;2024-03-08T07:16:04;101460.41;;;1.08;100.00
70546;BME280;58098;51.680;5.134;2024-03-08T07:18:30;101458.63;;;1.12;100.00
70546;BME280;58098;51.680;5.134;2024-03-08T07:20:56;101449.16;;;1.12;100.00
70546;BME280;58098;51.680;5.134;2024-03-08T07:23:22;101446.56;;;1.14;100.00
70546;BME280;58098;51.680;5.134;2024-03-08T07:26:06;101448.84;;;1.23;100.00
70546;BME280;58098;51.680;5.134;2024-03-08T07:28:31;101450.19;;;1.34;100.00
70546;BME280;58098;51.680;5.134;2024-03-08T07:31:00;101460.28;;;1.41;100.00
70546;BME280;58098;51.680;5.134;2024-03-08T07:33:37;101460.97;;;1.46;100.00
70546;BME280;58098;51.680;5.134;2024-03-08T07:36:03;101459.13;;;1.49;100.00
70546;BME280;58098;51.680;5.134;2024-03-08T07:38:29;101441.22;;;1.46;100.00
70546;BME280;58098;51.680;5.134;2024-03-08T07:40:54;101437.69;;;1.50;100.00
70546;BME280;58098;51.680;5.134;2024-03-08T07:43:22;101446.69;;;1.63;100.00
70546;BME280;58098;51.680;5.134;2024-03-08T07:45:47;101439.03;;;1.62;100.00
70546;BME280;58098;51.680;5.134;2024-03-08T07:48:12;101442.91;;;1.73;100.00
70546;BME280;58098;51.680;5.134;2024-03-08T07:50:39;101402.38;;;1.55;100.00
70546;BME280;58098;51.680;5.134;2024-03-08T07:53:04;101445.00;;;1.88;100.00
70546;BME280;58098;51.680;5.134;2024-03-08T07:55:34;101423.72;;;1.83;100.00
70546;BME280;58098;51.680;5.134;2024-03-08T07:58:00;101436.22;;;1.94;100.00
70546;BME280;58098;51.680;5.134;2024-03-08T08:00:26;101428.25;;;2.02;100.00
70546;BME280;58098;51.680;5.134;2024-03-08T08:02:53;101416.38;;;1.97;100.00
70546;BME280;58098;51.680;5.134;2024-03-08T08:05:18;101430.50;;;2.11;100.00
70546;BME280;58098;51.680;5.134;2024-03-08T08:07:44;101416.84;;;2.09;100.00
70546;BME280;58098;51.680;5.134;2024-03-08T08:10:12;101399.72;;;2.08;100.00
70546;BME280;58098;51.680;5.134;2024-03-08T08:12:43;101431.53;;;2.30;100.00
70546;BME280;58098;51.680;5.134;2024-03-08T08:15:09;101416.88;;;2.32;100.00
70546;BME280;58098;51.680;5.134;2024-03-08T08:17:34;101404.94;;;2.29;100.00
70546;BME280;58098;51.680;5.134;2024-03-08T08:20:00;101414.69;;;2.44;100.00
70546;BME280;58098;51.680;5.134;2024-03-08T08:22:25;101400.16;;;2.43;100.00
70546;BME280;58098;51.680;5.134;2024-03-08T08:24:50;101398.13;;;2.51;100.00
70546;BME280;58098;51.680;5.134;2024-03-08T08:27:17;101397.84;;;2.59;100.00
70546;BME280;58098;51.680;5.134;2024-03-08T08:29:43;101400.22;;;2.65;100.00
70546;BME280;58098;51.680;5.134;2024-03-08T08:32:11;101389.56;;;2.74;100.00
70546;BME280;58098;51.680;5.134;2024-03-08T08:34:36;101385.06;;;2.79;100.00
70546;BME280;58098;51.680;5.134;2024-03-08T08:37:02;101376.41;;;2.80;100.00
70546;BME280;58098;51.680;5.134;2024-03-08T08:39:27;101397.13;;;3.00;100.00
70546;BME280;58098;51.680;5.134;2024-03-08T08:41:52;101386.88;;;2.99;100.00
70546;BME280;58098;51.680;5.134;2024-03-08T08:44:18;101371.22;;;3.03;100.00
70546;BME280;58098;51.680;5.134;2024-03-08T08:46:43;101370.00;;;3.12;100.00
70546;BME280;58098;51.680;5.134;2024-03-08T08:49:08;101351.31;;;3.07;100.00
70546;BME280;58098;51.680;5.134;2024-03-08T08:51:39;101388.03;;;3.33;100.00
70546;BME280;58098;51.680;5.134;2024-03-08T08:54:05;101373.47;;;3.32;100.00
70546;BME280;58098;51.680;5.134;2024-03-08T08:56:31;101339.41;;;3.24;100.00
70546;BME280;58098;51.680;5.134;2024-03-08T08:58:57;101353.13;;;3.47;100.00
70546;BME280;58098;51.680;5.134;2024-03-08T09:01:23;101356.22;;;3.55;100.00
70546;BME280;58098;51.680;5.134;2024-03-08T09:03:48;101356.72;;;3.63;100.00
70546;BME280;58098;51.680;5.134;2024-03-08T09:06:15;101369.00;;;3.78;100.00
70546;BME280;58098;51.680;5.134;2024-03-08T09:08:41;101347.44;;;3.79;100.00
70546;BME280;58098;51.680;5.134;2024-03-08T09:11:07;101332.09;;;3.76;100.00
70546;BME280;58098;51.680;5.134;2024-03-08T09:13:32;101361.03;;;4.03;100.00
70546;BME280;58098;51.680;5.134;2024-03-08T09:15:59;101357.22;;;4.11;100.00
70546;BME280;58098;51.680;5.134;2024-03-08T09:18:30;101343.41;;;4.12;100.00
70546;BME280;58098;51.680;5.134;2024-03-08T09:20:57;101357.16;;;4.31;100.00
70546;BME280;58098;51.680;5.134;2024-03-08T09:23:22;101351.03;;;4.34;100.00
70546;BME280;58098;51.680;5.134;2024-03-08T09:25:47;101329.25;;;4.39;100.00
70546;BME280;58098;51.680;5.134;2024-03-08T09:28:13;101325.59;;;4.43;100.00
70546;BME280;58098;51.680;5.134;2024-03-08T09:30:39;101339.56;;;4.58;100.00
70546;BME280;58098;51.680;5.134;2024-03-08T09:33:05;101313.47;;;4.64;100.00
70546;BME280;58098;51.680;5.134;2024-03-08T09:35:31;101323.88;;;4.80;100.00
70546;BME280;58098;51.680;5.134;2024-03-08T09:37:56;101318.88;;;4.77;100.00
70546;BME280;58098;51.680;5.134;2024-03-08T09:40:22;101311.53;;;4.86;100.00
70546;BME280;58098;51.680;5.134;2024-03-08T09:42:49;101300.13;;;4.90;100.00
70546;BME280;58098;51.680;5.134;2024-03-08T09:45:16;101293.28;;;5.06;100.00
70546;BME280;58098;51.680;5.134;2024-03-08T09:47:43;101293.00;;;5.12;100.00
70546;BME280;58098;51.680;5.134;2024-03-08T09:50:09;101280.78;;;5.16;100.00
70546;BME280;58098;51.680;5.134;2024-03-08T09:52:47;101291.41;;;5.27;100.00
70546;BME280;58098;51.680;5.134;2024-03-08T09:55:13;101261.25;;;5.26;100.00
70546;BME280;58098;51.680;5.134;2024-03-08T09:57:40;101268.59;;;5.35;100.00
70546;BME280;58098;51.680;5.134;2024-03-08T10:00:06;101261.94;;;5.47;100.00
70546;BME280;58098;51.680;5.134;2024-03-08T10:02:47;101264.00;;;5.57;100.00
70546;BME280;58098;51.680;5.134;2024-03-08T10:05:13;101262.56;;;5.67;100.00
70546;BME280;58098;51.680;5.134;2024-03-08T10:07:39;101247.75;;;5.71;100.00
70546;BME280;58098;51.680;5.134;2024-03-08T10:10:04;101252.16;;;5.86;100.00
70546;BME280;58098;51.680;5.134;2024-03-08T10:12:30;101243.13;;;5.93;100.00
70546;BME280;58098;51.680;5.134;2024-03-08T10:14:58;101232.63;;;5.96;100.00
70546;BME280;58098;51.680;5.134;2024-03-08T10:17:23;101237.78;;;6.12;100.00
70546;BME280;58098;51.680;5.134;2024-03-08T10:19:50;101231.63;;;6.14;100.00
70546;BME280;58098;51.680;5.134;2024-03-08T10:22:16;101209.56;;;6.23;100.00
70546;BME280;58098;51.680;5.134;2024-03-08T10:24:45;101213.38;;;6.31;100.00
70546;BME280;58098;51.680;5.134;2024-03-08T10:27:10;101216.56;;;6.52;100.00
70546;BME280;58098;51.680;5.134;2024-03-08T10:29:36;101216.88;;;6.61;100.00
70546;BME280;58098;51.680;5.134;2024-03-08T10:32:03;101186.06;;;6.71;100.00
70546;BME280;58098;51.680;5.134;2024-03-08T10:34:30;101195.50;;;6.72;100.00
70546;BME280;58098;51.680;5.134;2024-03-08T10:36:59;101198.41;;;6.82;100.00
70546;BME280;58098;51.680;5.134;2024-03-08T10:39:35;101190.75;;;6.94;100.00
70546;BME280;58098;51.680;5.134;2024-03-08T10:42:03;101208.13;;;7.08;100.00
70546;BME280;58098;51.680;5.134;2024-03-08T10:47:18;101182.66;;;7.28;100.00
70546;BME280;58098;51.680;5.134;2024-03-08T10:50:04;101175.06;;;7.54;100.00
70546;BME280;58098;51.680;5.134;2024-03-08T10:52:33;101171.34;;;7.58;100.00
70546;BME280;58098;51.680;5.134;2024-03-08T10:55:01;101178.28;;;7.57;100.00
70546;BME280;58098;51.680;5.134;2024-03-08T10:57:27;101174.69;;;7.74;100.00
70546;BME280;58098;51.680;5.134;2024-03-08T10:59:53;101158.50;;;7.83;100.00
70546;BME280;58098;51.680;5.134;2024-03-08T11:02:19;101156.06;;;7.94;100.00
70546;BME280;58098;51.680;5.134;2024-03-08T11:04:48;101165.88;;;8.03;100.00
70546;BME280;58098;51.680;5.134;2024-03-08T11:07:14;101157.44;;;7.99;100.00
70546;BME280;58098;51.680;5.134;2024-03-08T11:09:42;101152.16;;;8.01;100.00
70546;BME280;58098;51.680;5.134;2024-03-08T11:14:49;101135.81;;;8.26;100.00
70546;BME280;58098;51.680;5.134;2024-03-08T11:17:16;101121.75;;;8.42;100.00
70546;BME280;58098;51.680;5.134;2024-03-08T11:19:46;101129.97;;;8.76;100.00
70546;BME280;58098;51.680;5.134;2024-03-08T11:22:25;101143.78;;;8.76;100.00
70546;BME280;58098;51.680;5.134;2024-03-08T11:24:52;101143.88;;;8.75;100.00
70546;BME280;58098;51.680;5.134;2024-03-08T11:27:18;101131.41;;;8.80;100.00
70546;BME280;58098;51.680;5.134;2024-03-08T11:29:59;101137.03;;;8.99;100.00
70546;BME280;58098;51.680;5.134;2024-03-08T11:32:27;101108.28;;;9.25;100.00
70546;BME280;58098;51.680;5.134;2024-03-08T11:34:54;101108.06;;;9.54;100.00
70546;BME280;58098;51.680;5.134;2024-03-08T11:37:20;101095.25;;;9.74;100.00
70546;BME280;58098;51.680;5.134;2024-03-08T11:39:50;101113.72;;;9.71;100.00
70546;BME280;58098;51.680;5.134;2024-03-08T11:42:17;101121.06;;;9.90;100.00
70546;BME280;58098;51.680;5.134;2024-03-08T11:44:43;101123.78;;;9.88;100.00
70546;BME280;58098;51.680;5.134;2024-03-08T11:47:10;101109.13;;;9.98;100.00
70546;BME280;58098;51.680;5.134;2024-03-08T11:49:36;101100.63;;;10.08;100.00
70546;BME280;58098;51.680;5.134;2024-03-08T11:52:02;101078.31;;;9.92;100.00
70546;BME280;58098;51.680;5.134;2024-03-08T11:54:28;101120.16;;;10.15;100.00
70546;BME280;58098;51.680;5.134;2024-03-08T11:56:55;101089.81;;;10.14;100.00
70546;BME280;58098;51.680;5.134;2024-03-08T11:59:26;101105.56;;;10.47;100.00
70546;BME280;58098;51.680;5.134;2024-03-08T12:02:02;101100.38;;;10.47;100.00
70546;BME280;58098;51.680;5.134;2024-03-08T12:04:29;101101.34;;;10.57;100.00
70546;BME280;58098;51.680;5.134;2024-03-08T12:06:56;101088.56;;;10.76;100.00
70546;BME280;58098;51.680;5.134;2024-03-08T12:09:24;101081.84;;;10.85;100.00
70546;BME280;58098;51.680;5.134;2024-03-08T12:11:50;101105.47;;;10.94;100.00
70546;BME280;58098;51.680;5.134;2024-03-08T12:14:16;101097.06;;;11.02;100.00
70546;BME280;58098;51.680;5.134;2024-03-08T12:16:41;101100.25;;;10.94;100.00
70546;BME280;58098;51.680;5.134;2024-03-08T12:19:08;101088.22;;;10.81;100.00
70546;BME280;58098;51.680;5.134;2024-03-08T12:21:35;101078.63;;;10.81;100.00
70546;BME280;58098;51.680;5.134;2024-03-08T12:24:05;101060.72;;;11.21;100.00
70546;BME280;58098;51.680;5.134;2024-03-08T12:26:35;101064.16;;;11.44;100.00
70546;BME280;58098;51.680;5.134;2024-03-08T12:29:15;101055.34;;;11.56;100.00
70546;BME280;58098;51.680;5.134;2024-03-08T12:31:46;101068.88;;;11.61;100.00
70546;BME280;58098;51.680;5.134;2024-03-08T12:34:12;101060.56;;;11.56;100.00
70546;BME280;58098;51.680;5.134;2024-03-08T12:36:44;101042.13;;;11.57;100.00
70546;BME280;58098;51.680;5.134;2024-03-08T12:39:10;101040.56;;;11.66;100.00
70546;BME280;58098;51.680;5.134;2024-03-08T12:41:40;101055.50;;;11.86;100.00
70546;BME280;58098;51.680;5.134;2024-03-08T12:44:06;101041.28;;;11.79;100.00
70546;BME280;58098;51.680;5.134;2024-03-08T12:46:32;101037.00;;;11.67;100.00
70546;BME280;58098;51.680;5.134;2024-03-08T12:48:58;101036.97;;;11.89;100.00
70546;BME280;58098;51.680;5.134;2024-03-08T12:51:24;101042.53;;;11.96;100.00
70546;BME280;58098;51.680;5.134;2024-03-08T12:53:50;101016.59;;;12.04;100.00